PWSweather.com
Personal Weather Stations
Station Observations
BSWETTER1
Bswetter.de, BraunschweigDE 38106

Bswetter.deBraunschweigDE 38106

Lat: 52.2751483, Lon: 10.5434341

Elevation: 295

Station Type: Davis Vantage II Pro Plus Aktiv

http://bswetter.de/

Latest ConditionsUpdated 2:45:08 AM GMT+01:01 Thursday, Sep 20, 2018
Currently Today's Max Today's Min Today's Average
Temperature 65.8°F18.8°C 70.2°F21.2°C 65.8°F18.8°C 68.1°F20.1°C
Dew Point 56.5°F13.6°C 57.5°F14.2°C 56.2°F13.4°C 56.9°F13.8°C
Winds Calm Calm 3.5 mph -5.6 kmh - - 0.8 mph 1.3 kmh
Wind Gusts -- 5.8 mph9.3 kmh - -
Humidity 72% 72% 64% 67%
Pressure 30.03 in1016.9 mb 30.04 in1017.3 mb 30.03 in1016.9 mb -
Hour Temp Dew Point Humidity Winds Wind Gusts Pressure Precip Precip Rate Daily Precip Total
02:45 AM 65.8°F18.8°C 56.5°F13.6°C 72% Calm Calm -- 30.03 in1016.9 mb - 0.00 in0.0 mm 0.00 in0.0 mm
02:40 AM 65.9°F18.8°C 56.6°F13.7°C 72% 1.1 mph W1.8 kmh W 2.3 mph3.7 kmh 30.03 in1016.9 mb - 0.00 in0.0 mm 0.00 in0.0 mm
02:35 AM 66.1°F18.9°C 56.4°F13.6°C 71% Calm Calm 3.5 mph5.6 kmh 30.03 in1016.9 mb - 0.00 in0.0 mm 0.00 in0.0 mm
02:30 AM 66.2°F19.0°C 56.6°F13.7°C 71% Calm Calm 1.1 mph1.8 kmh 30.03 in1016.9 mb - 0.00 in0.0 mm 0.00 in0.0 mm
02:25 AM 66.5°F19.2°C 56.4°F13.6°C 70% Calm Calm -- 30.03 in1016.9 mb - 0.00 in0.0 mm 0.00 in0.0 mm
02:20 AM 66.7°F19.3°C 56.6°F13.7°C 70% Calm Calm -- 30.03 in1016.9 mb - 0.00 in0.0 mm 0.00 in0.0 mm
02:15 AM 67.0°F19.4°C 56.5°F13.6°C 69% 1.1 mph WNW1.8 kmh WNW 2.3 mph3.7 kmh 30.03 in1016.9 mb - 0.00 in0.0 mm 0.00 in0.0 mm
02:10 AM 67.4°F19.7°C 56.5°F13.6°C 68% Calm Calm 1.1 mph1.8 kmh 30.03 in1016.9 mb - 0.00 in0.0 mm 0.00 in0.0 mm
02:00 AM 67.6°F19.8°C 56.2°F13.4°C 67% 1.1 mph WNW1.8 kmh WNW 3.5 mph5.6 kmh 30.03 in1016.9 mb - 0.00 in0.0 mm 0.00 in0.0 mm
01:55 AM 67.6°F19.8°C 56.2°F13.4°C 67% 1.1 mph WNW1.8 kmh WNW 2.3 mph3.7 kmh 30.03 in1016.9 mb - 0.00 in0.0 mm 0.00 in0.0 mm
01:50 AM 67.7°F19.8°C 56.8°F13.8°C 68% 1.1 mph WNW1.8 kmh WNW 3.5 mph5.6 kmh 30.03 in1016.9 mb - 0.00 in0.0 mm 0.00 in0.0 mm
01:45 AM 67.9°F19.9°C 56.9°F13.8°C 68% Calm Calm -- 30.04 in1017.3 mb - 0.00 in0.0 mm 0.00 in0.0 mm
01:40 AM 68.0°F20.0°C 57.0°F13.9°C 68% Calm Calm -- 30.04 in1017.3 mb - 0.00 in0.0 mm 0.00 in0.0 mm
01:35 AM 68.1°F20.1°C 56.7°F13.7°C 67% Calm Calm -- 30.04 in1017.3 mb - 0.00 in0.0 mm 0.00 in0.0 mm
01:30 AM 68.3°F20.2°C 56.9°F13.8°C 67% Calm Calm -- 30.04 in1017.3 mb - 0.00 in0.0 mm 0.00 in0.0 mm
01:25 AM 68.3°F20.2°C 56.9°F13.8°C 67% Calm Calm -- 30.04 in1017.3 mb - 0.00 in0.0 mm 0.00 in0.0 mm
01:20 AM 68.4°F20.2°C 57.0°F13.9°C 67% Calm Calm -- 30.04 in1017.3 mb - 0.00 in0.0 mm 0.00 in0.0 mm
01:15 AM 68.5°F20.3°C 57.1°F13.9°C 67% 1.1 mph WNW1.8 kmh WNW 1.1 mph1.8 kmh 30.04 in1017.3 mb - 0.00 in0.0 mm 0.00 in0.0 mm
01:10 AM 68.5°F20.3°C 56.7°F13.7°C 66% Calm Calm 2.3 mph3.7 kmh 30.04 in1017.3 mb - 0.00 in0.0 mm 0.00 in0.0 mm
01:00 AM 68.6°F20.3°C 57.2°F14.0°C 67% Calm Calm 2.3 mph3.7 kmh 30.04 in1017.3 mb - 0.00 in0.0 mm 0.00 in0.0 mm
12:55 AM 68.7°F20.4°C 57.3°F14.1°C 67% 1.1 mph WNW1.8 kmh WNW 3.5 mph5.6 kmh 30.04 in1017.3 mb - 0.00 in0.0 mm 0.00 in0.0 mm
12:50 AM 68.8°F20.4°C 57.4°F14.1°C 67% 2.3 mph WNW3.7 kmh WNW 3.5 mph5.6 kmh 30.04 in1017.3 mb - 0.00 in0.0 mm 0.00 in0.0 mm
12:45 AM 68.9°F20.5°C 57.5°F14.2°C 67% 1.1 mph WNW1.8 kmh WNW 3.5 mph5.6 kmh 30.04 in1017.3 mb - 0.00 in0.0 mm 0.00 in0.0 mm
12:40 AM 69.0°F20.6°C 57.2°F14.0°C 66% 1.1 mph WNW1.8 kmh WNW 2.3 mph3.7 kmh 30.04 in1017.3 mb - 0.00 in0.0 mm 0.00 in0.0 mm
12:35 AM 69.1°F20.6°C 57.3°F14.1°C 66% 1.1 mph WNW1.8 kmh WNW 3.5 mph5.6 kmh 30.04 in1017.3 mb - 0.00 in0.0 mm 0.00 in0.0 mm
12:30 AM 69.2°F20.7°C 57.4°F14.1°C 66% 1.1 mph WNW1.8 kmh WNW 3.5 mph5.6 kmh 30.04 in1017.3 mb - 0.00 in0.0 mm 0.00 in0.0 mm
12:25 AM 69.3°F20.7°C 57.0°F13.9°C 65% 1.1 mph WNW1.8 kmh WNW 2.3 mph3.7 kmh 30.04 in1017.3 mb - 0.00 in0.0 mm 0.00 in0.0 mm
12:20 AM 69.5°F20.8°C 57.2°F14.0°C 65% 3.5 mph WNW5.6 kmh WNW 3.5 mph5.6 kmh 30.03 in1016.9 mb - 0.00 in0.0 mm 0.00 in0.0 mm
12:15 AM 69.6°F20.9°C 57.4°F14.1°C 65% 2.3 mph W3.7 kmh W 3.5 mph5.6 kmh 30.03 in1016.9 mb - 0.00 in0.0 mm 0.00 in0.0 mm
12:10 AM 69.8°F21.0°C 57.5°F14.2°C 65% 2.3 mph W3.7 kmh W 3.5 mph5.6 kmh 30.03 in1016.9 mb - 0.00 in0.0 mm 0.00 in0.0 mm
12:00 AM 70.2°F21.2°C 57.4°F14.1°C 64% 2.3 mph W3.7 kmh W 5.8 mph9.3 kmh 30.03 in1016.9 mb - 0.00 in0.0 mm 0.00 in0.0 mm